sensor_id;sensor_type;location;lat;lon;timestamp;P1;durP1;ratioP1;P2;durP2;ratioP2
48241;SDS011;34041;51.812;4.622;2024-02-21T00:02:39;8.23;;;3.97;;
48241;SDS011;34041;51.812;4.622;2024-02-21T00:05:39;7.23;;;3.20;;
48241;SDS011;34041;51.812;4.622;2024-02-21T00:08:39;15.52;;;3.53;;
48241;SDS011;34041;51.812;4.622;2024-02-21T00:11:39;8.23;;;3.17;;
48241;SDS011;34041;51.812;4.622;2024-02-21T00:14:40;10.95;;;3.60;;
48241;SDS011;34041;51.812;4.622;2024-02-21T00:17:40;10.65;;;3.63;;
48241;SDS011;34041;51.812;4.622;2024-02-21T00:20:41;9.50;;;3.08;;
48241;SDS011;34041;51.812;4.622;2024-02-21T00:23:41;9.40;;;3.72;;
48241;SDS011;34041;51.812;4.622;2024-02-21T00:26:41;7.95;;;3.53;;
48241;SDS011;34041;51.812;4.622;2024-02-21T00:29:41;8.30;;;3.57;;
48241;SDS011;34041;51.812;4.622;2024-02-21T00:32:41;8.53;;;3.20;;
48241;SDS011;34041;51.812;4.622;2024-02-21T00:35:42;6.90;;;3.33;;
48241;SDS011;34041;51.812;4.622;2024-02-21T00:38:42;12.02;;;3.22;;
48241;SDS011;34041;51.812;4.622;2024-02-21T00:41:42;10.88;;;3.30;;
48241;SDS011;34041;51.812;4.622;2024-02-21T00:44:42;12.23;;;3.65;;
48241;SDS011;34041;51.812;4.622;2024-02-21T00:47:43;7.53;;;2.80;;
48241;SDS011;34041;51.812;4.622;2024-02-21T00:50:43;9.73;;;3.95;;
48241;SDS011;34041;51.812;4.622;2024-02-21T00:53:43;4.77;;;2.80;;
48241;SDS011;34041;51.812;4.622;2024-02-21T00:56:43;18.10;;;4.90;;
48241;SDS011;34041;51.812;4.622;2024-02-21T00:59:43;8.43;;;3.07;;
48241;SDS011;34041;51.812;4.622;2024-02-21T01:02:44;7.10;;;3.17;;
48241;SDS011;34041;51.812;4.622;2024-02-21T01:05:44;11.45;;;4.03;;
48241;SDS011;34041;51.812;4.622;2024-02-21T01:08:44;7.38;;;2.60;;
48241;SDS011;34041;51.812;4.622;2024-02-21T01:11:44;10.38;;;3.00;;
48241;SDS011;34041;51.812;4.622;2024-02-21T01:14:45;8.27;;;2.63;;
48241;SDS011;34041;51.812;4.622;2024-02-21T01:17:46;11.98;;;2.95;;
48241;SDS011;34041;51.812;4.622;2024-02-21T01:20:46;6.35;;;3.33;;
48241;SDS011;34041;51.812;4.622;2024-02-21T01:23:46;9.87;;;3.20;;
48241;SDS011;34041;51.812;4.622;2024-02-21T01:26:47;9.23;;;3.57;;
48241;SDS011;34041;51.812;4.622;2024-02-21T01:29:47;10.48;;;3.00;;
48241;SDS011;34041;51.812;4.622;2024-02-21T01:32:49;7.93;;;2.88;;
48241;SDS011;34041;51.812;4.622;2024-02-21T01:35:49;7.90;;;2.38;;
48241;SDS011;34041;51.812;4.622;2024-02-21T01:38:50;7.90;;;3.22;;
48241;SDS011;34041;51.812;4.622;2024-02-21T01:41:50;13.00;;;3.60;;
48241;SDS011;34041;51.812;4.622;2024-02-21T01:44:50;11.73;;;4.70;;
48241;SDS011;34041;51.812;4.622;2024-02-21T01:47:51;6.75;;;2.97;;
48241;SDS011;34041;51.812;4.622;2024-02-21T01:50:52;7.10;;;2.77;;
48241;SDS011;34041;51.812;4.622;2024-02-21T01:53:54;9.55;;;3.35;;
48241;SDS011;34041;51.812;4.622;2024-02-21T01:56:54;11.40;;;3.03;;
48241;SDS011;34041;51.812;4.622;2024-02-21T01:59:55;10.43;;;3.83;;
48241;SDS011;34041;51.812;4.622;2024-02-21T02:02:55;9.52;;;2.90;;
48241;SDS011;34041;51.812;4.622;2024-02-21T02:05:56;8.60;;;3.58;;
48241;SDS011;34041;51.812;4.622;2024-02-21T02:08:56;7.97;;;3.65;;
48241;SDS011;34041;51.812;4.622;2024-02-21T02:11:56;8.55;;;3.50;;
48241;SDS011;34041;51.812;4.622;2024-02-21T02:14:59;8.13;;;3.22;;
48241;SDS011;34041;51.812;4.622;2024-02-21T02:17:59;12.18;;;3.88;;
48241;SDS011;34041;51.812;4.622;2024-02-21T02:20:59;11.27;;;5.33;;
48241;SDS011;34041;51.812;4.622;2024-02-21T02:23:59;10.67;;;3.70;;
48241;SDS011;34041;51.812;4.622;2024-02-21T02:27:00;8.30;;;3.70;;
48241;SDS011;34041;51.812;4.622;2024-02-21T02:30:00;6.10;;;3.17;;
48241;SDS011;34041;51.812;4.622;2024-02-21T02:33:00;5.70;;;3.30;;
48241;SDS011;34041;51.812;4.622;2024-02-21T02:36:01;9.00;;;3.70;;
48241;SDS011;34041;51.812;4.622;2024-02-21T02:39:01;12.57;;;4.55;;
48241;SDS011;34041;51.812;4.622;2024-02-21T02:42:01;14.30;;;4.35;;
48241;SDS011;34041;51.812;4.622;2024-02-21T02:45:02;8.30;;;3.72;;
48241;SDS011;34041;51.812;4.622;2024-02-21T02:48:03;10.85;;;3.35;;
48241;SDS011;34041;51.812;4.622;2024-02-21T02:51:04;9.57;;;3.53;;
48241;SDS011;34041;51.812;4.622;2024-02-21T02:54:04;9.98;;;3.53;;
48241;SDS011;34041;51.812;4.622;2024-02-21T02:57:04;8.13;;;3.55;;
48241;SDS011;34041;51.812;4.622;2024-02-21T03:00:06;7.57;;;3.70;;
48241;SDS011;34041;51.812;4.622;2024-02-21T03:03:07;6.45;;;3.50;;
48241;SDS011;34041;51.812;4.622;2024-02-21T03:06:08;5.63;;;3.88;;
48241;SDS011;34041;51.812;4.622;2024-02-21T03:09:08;9.43;;;3.77;;
48241;SDS011;34041;51.812;4.622;2024-02-21T03:12:09;12.65;;;3.83;;
48241;SDS011;34041;51.812;4.622;2024-02-21T03:15:09;9.43;;;3.63;;
48241;SDS011;34041;51.812;4.622;2024-02-21T03:18:09;7.50;;;3.88;;
48241;SDS011;34041;51.812;4.622;2024-02-21T03:21:10;8.93;;;4.00;;
48241;SDS011;34041;51.812;4.622;2024-02-21T03:24:10;6.63;;;4.13;;
48241;SDS011;34041;51.812;4.622;2024-02-21T03:27:10;6.68;;;3.60;;
48241;SDS011;34041;51.812;4.622;2024-02-21T03:30:11;11.07;;;3.87;;
48241;SDS011;34041;51.812;4.622;2024-02-21T03:33:12;6.20;;;4.40;;
48241;SDS011;34041;51.812;4.622;2024-02-21T03:36:13;8.57;;;4.35;;
48241;SDS011;34041;51.812;4.622;2024-02-21T03:39:13;8.63;;;4.78;;
48241;SDS011;34041;51.812;4.622;2024-02-21T03:42:13;6.40;;;3.80;;
48241;SDS011;34041;51.812;4.622;2024-02-21T03:45:14;15.38;;;5.05;;
48241;SDS011;34041;51.812;4.622;2024-02-21T03:48:14;10.13;;;4.73;;
48241;SDS011;34041;51.812;4.622;2024-02-21T03:51:14;11.40;;;5.10;;
48241;SDS011;34041;51.812;4.622;2024-02-21T03:54:15;13.75;;;5.47;;
48241;SDS011;34041;51.812;4.622;2024-02-21T03:57:15;9.13;;;4.40;;
48241;SDS011;34041;51.812;4.622;2024-02-21T04:00:16;9.55;;;5.88;;
48241;SDS011;34041;51.812;4.622;2024-02-21T04:03:16;11.88;;;5.97;;
48241;SDS011;34041;51.812;4.622;2024-02-21T04:06:16;6.17;;;5.03;;
48241;SDS011;34041;51.812;4.622;2024-02-21T04:09:17;9.13;;;5.47;;
48241;SDS011;34041;51.812;4.622;2024-02-21T04:12:17;9.18;;;5.25;;
48241;SDS011;34041;51.812;4.622;2024-02-21T04:15:17;10.15;;;6.30;;
48241;SDS011;34041;51.812;4.622;2024-02-21T04:18:18;5.50;;;4.55;;
48241;SDS011;34041;51.812;4.622;2024-02-21T04:21:18;8.23;;;5.30;;
48241;SDS011;34041;51.812;4.622;2024-02-21T04:24:19;9.75;;;5.10;;
48241;SDS011;34041;51.812;4.622;2024-02-21T04:27:19;9.83;;;4.20;;
48241;SDS011;34041;51.812;4.622;2024-02-21T04:30:19;10.30;;;4.80;;
48241;SDS011;34041;51.812;4.622;2024-02-21T04:33:19;14.63;;;5.33;;
48241;SDS011;34041;51.812;4.622;2024-02-21T04:36:20;8.43;;;5.43;;
48241;SDS011;34041;51.812;4.622;2024-02-21T04:39:20;6.63;;;4.55;;
48241;SDS011;34041;51.812;4.622;2024-02-21T04:42:20;7.45;;;5.78;;
48241;SDS011;34041;51.812;4.622;2024-02-21T04:45:20;12.10;;;6.80;;
48241;SDS011;34041;51.812;4.622;2024-02-21T04:48:21;16.43;;;7.50;;
48241;SDS011;34041;51.812;4.622;2024-02-21T04:51:21;11.20;;;7.15;;
48241;SDS011;34041;51.812;4.622;2024-02-21T04:54:21;15.00;;;7.97;;
48241;SDS011;34041;51.812;4.622;2024-02-21T04:57:21;14.15;;;7.18;;
48241;SDS011;34041;51.812;4.622;2024-02-21T05:00:22;13.80;;;7.82;;
48241;SDS011;34041;51.812;4.622;2024-02-21T05:03:22;14.73;;;7.33;;
48241;SDS011;34041;51.812;4.622;2024-02-21T05:06:22;13.27;;;7.00;;
48241;SDS011;34041;51.812;4.622;2024-02-21T05:09:22;13.95;;;7.82;;
48241;SDS011;34041;51.812;4.622;2024-02-21T05:12:22;15.27;;;7.63;;
48241;SDS011;34041;51.812;4.622;2024-02-21T05:15:23;16.17;;;8.13;;
48241;SDS011;34041;51.812;4.622;2024-02-21T05:18:23;17.07;;;7.00;;
48241;SDS011;34041;51.812;4.622;2024-02-21T05:21:23;14.43;;;7.25;;
48241;SDS011;34041;51.812;4.622;2024-02-21T05:24:24;16.10;;;7.75;;
48241;SDS011;34041;51.812;4.622;2024-02-21T05:27:24;15.90;;;7.47;;
48241;SDS011;34041;51.812;4.622;2024-02-21T05:30:24;15.27;;;7.73;;
48241;SDS011;34041;51.812;4.622;2024-02-21T05:33:24;22.07;;;8.20;;
48241;SDS011;34041;51.812;4.622;2024-02-21T05:36:25;10.43;;;6.25;;
48241;SDS011;34041;51.812;4.622;2024-02-21T05:39:25;17.30;;;7.70;;
48241;SDS011;34041;51.812;4.622;2024-02-21T05:42:25;11.05;;;6.90;;
48241;SDS011;34041;51.812;4.622;2024-02-21T05:45:25;11.23;;;7.80;;
48241;SDS011;34041;51.812;4.622;2024-02-21T05:48:26;14.70;;;8.27;;
48241;SDS011;34041;51.812;4.622;2024-02-21T05:51:27;16.30;;;8.90;;
48241;SDS011;34041;51.812;4.622;2024-02-21T05:54:27;14.60;;;7.43;;
48241;SDS011;34041;51.812;4.622;2024-02-21T05:57:27;13.77;;;7.75;;
48241;SDS011;34041;51.812;4.622;2024-02-21T06:00:28;18.37;;;8.87;;
48241;SDS011;34041;51.812;4.622;2024-02-21T06:03:28;19.35;;;8.45;;
48241;SDS011;34041;51.812;4.622;2024-02-21T06:06:29;15.88;;;7.55;;
48241;SDS011;34041;51.812;4.622;2024-02-21T06:09:29;19.07;;;9.10;;
48241;SDS011;34041;51.812;4.622;2024-02-21T06:12:29;18.15;;;8.70;;
48241;SDS011;34041;51.812;4.622;2024-02-21T06:15:29;20.73;;;9.32;;
48241;SDS011;34041;51.812;4.622;2024-02-21T06:18:30;19.02;;;8.68;;
48241;SDS011;34041;51.812;4.622;2024-02-21T06:21:30;16.57;;;8.93;;
48241;SDS011;34041;51.812;4.622;2024-02-21T06:24:33;18.95;;;9.32;;
48241;SDS011;34041;51.812;4.622;2024-02-21T06:27:33;23.67;;;9.55;;
48241;SDS011;34041;51.812;4.622;2024-02-21T06:30:33;16.43;;;8.73;;
48241;SDS011;34041;51.812;4.622;2024-02-21T06:33:34;13.48;;;9.02;;
48241;SDS011;34041;51.812;4.622;2024-02-21T06:36:34;16.70;;;9.33;;
48241;SDS011;34041;51.812;4.622;2024-02-21T06:39:34;22.20;;;10.40;;
48241;SDS011;34041;51.812;4.622;2024-02-21T06:42:37;15.95;;;10.50;;
48241;SDS011;34041;51.812;4.622;2024-02-21T06:45:37;16.00;;;10.05;;
48241;SDS011;34041;51.812;4.622;2024-02-21T06:48:38;27.77;;;12.82;;
48241;SDS011;34041;51.812;4.622;2024-02-21T06:51:38;17.83;;;10.00;;
48241;SDS011;34041;51.812;4.622;2024-02-21T06:54:39;17.40;;;11.03;;
48241;SDS011;34041;51.812;4.622;2024-02-21T06:57:39;17.77;;;10.38;;
48241;SDS011;34041;51.812;4.622;2024-02-21T07:00:40;16.80;;;12.10;;
48241;SDS011;34041;51.812;4.622;2024-02-21T07:03:40;18.92;;;10.88;;
48241;SDS011;34041;51.812;4.622;2024-02-21T07:06:40;20.93;;;12.80;;
48241;SDS011;34041;51.812;4.622;2024-02-21T07:09:41;25.10;;;11.93;;
48241;SDS011;34041;51.812;4.622;2024-02-21T07:12:41;20.85;;;10.15;;
48241;SDS011;34041;51.812;4.622;2024-02-21T07:15:43;23.83;;;11.02;;
48241;SDS011;34041;51.812;4.622;2024-02-21T07:18:43;18.90;;;10.73;;
48241;SDS011;34041;51.812;4.622;2024-02-21T07:21:43;19.13;;;9.80;;
48241;SDS011;34041;51.812;4.622;2024-02-21T07:24:44;21.17;;;12.10;;
48241;SDS011;34041;51.812;4.622;2024-02-21T07:27:44;17.97;;;11.23;;
48241;SDS011;34041;51.812;4.622;2024-02-21T07:30:44;23.33;;;10.93;;
48241;SDS011;34041;51.812;4.622;2024-02-21T07:33:44;18.17;;;10.93;;
48241;SDS011;34041;51.812;4.622;2024-02-21T07:36:45;18.37;;;12.57;;
48241;SDS011;34041;51.812;4.622;2024-02-21T07:39:45;22.88;;;13.02;;
48241;SDS011;34041;51.812;4.622;2024-02-21T07:42:46;23.75;;;12.80;;
48241;SDS011;34041;51.812;4.622;2024-02-21T07:45:46;21.83;;;12.07;;
48241;SDS011;34041;51.812;4.622;2024-02-21T07:48:46;21.58;;;12.77;;
48241;SDS011;34041;51.812;4.622;2024-02-21T07:51:47;17.20;;;13.02;;
48241;SDS011;34041;51.812;4.622;2024-02-21T07:54:47;18.80;;;11.50;;
48241;SDS011;34041;51.812;4.622;2024-02-21T07:57:47;15.77;;;11.93;;
48241;SDS011;34041;51.812;4.622;2024-02-21T08:00:48;19.63;;;11.93;;
48241;SDS011;34041;51.812;4.622;2024-02-21T08:03:48;20.73;;;11.27;;
48241;SDS011;34041;51.812;4.622;2024-02-21T08:06:52;15.83;;;11.20;;
48241;SDS011;34041;51.812;4.622;2024-02-21T08:09:53;21.95;;;11.82;;
48241;SDS011;34041;51.812;4.622;2024-02-21T08:12:53;19.87;;;11.33;;
48241;SDS011;34041;51.812;4.622;2024-02-21T08:15:54;16.90;;;11.73;;
48241;SDS011;34041;51.812;4.622;2024-02-21T08:18:54;22.40;;;12.32;;
48241;SDS011;34041;51.812;4.622;2024-02-21T08:21:54;15.77;;;11.25;;
48241;SDS011;34041;51.812;4.622;2024-02-21T08:24:54;20.95;;;11.80;;
48241;SDS011;34041;51.812;4.622;2024-02-21T08:27:57;15.43;;;11.33;;
48241;SDS011;34041;51.812;4.622;2024-02-21T08:30:57;17.00;;;10.23;;
48241;SDS011;34041;51.812;4.622;2024-02-21T08:33:58;18.73;;;10.57;;
48241;SDS011;34041;51.812;4.622;2024-02-21T08:37:07;13.90;;;10.32;;
48241;SDS011;34041;51.812;4.622;2024-02-21T08:40:08;18.38;;;10.07;;
48241;SDS011;34041;51.812;4.622;2024-02-21T08:43:08;23.75;;;11.32;;
48241;SDS011;34041;51.812;4.622;2024-02-21T08:46:08;14.00;;;10.30;;
48241;SDS011;34041;51.812;4.622;2024-02-21T08:49:10;19.03;;;11.63;;
48241;SDS011;34041;51.812;4.622;2024-02-21T08:52:10;22.55;;;12.20;;
48241;SDS011;34041;51.812;4.622;2024-02-21T08:55:10;18.50;;;10.05;;
48241;SDS011;34041;51.812;4.622;2024-02-21T08:58:11;16.33;;;11.93;;
48241;SDS011;34041;51.812;4.622;2024-02-21T09:01:11;21.95;;;12.27;;
48241;SDS011;34041;51.812;4.622;2024-02-21T09:04:11;21.80;;;10.30;;
48241;SDS011;34041;51.812;4.622;2024-02-21T09:07:12;15.85;;;10.07;;
48241;SDS011;34041;51.812;4.622;2024-02-21T09:10:12;12.82;;;9.82;;
48241;SDS011;34041;51.812;4.622;2024-02-21T09:13:12;19.80;;;9.52;;
48241;SDS011;34041;51.812;4.622;2024-02-21T09:16:12;16.27;;;10.67;;
48241;SDS011;34041;51.812;4.622;2024-02-21T09:19:13;13.20;;;10.13;;
48241;SDS011;34041;51.812;4.622;2024-02-21T09:22:13;15.13;;;9.87;;
48241;SDS011;34041;51.812;4.622;2024-02-21T09:25:13;16.92;;;9.68;;
48241;SDS011;34041;51.812;4.622;2024-02-21T09:28:13;14.73;;;9.87;;
48241;SDS011;34041;51.812;4.622;2024-02-21T09:31:14;14.77;;;10.07;;
48241;SDS011;34041;51.812;4.622;2024-02-21T09:34:14;14.97;;;8.93;;
48241;SDS011;34041;51.812;4.622;2024-02-21T09:37:14;13.60;;;10.23;;
48241;SDS011;34041;51.812;4.622;2024-02-21T09:40:15;16.10;;;9.85;;
48241;SDS011;34041;51.812;4.622;2024-02-21T09:43:16;12.35;;;9.35;;
48241;SDS011;34041;51.812;4.622;2024-02-21T09:46:18;13.35;;;9.40;;
48241;SDS011;34041;51.812;4.622;2024-02-21T09:49:27;13.38;;;8.93;;
48241;SDS011;34041;51.812;4.622;2024-02-21T09:52:29;11.85;;;8.27;;
48241;SDS011;34041;51.812;4.622;2024-02-21T09:55:31;22.13;;;9.38;;
48241;SDS011;34041;51.812;4.622;2024-02-21T09:58:34;11.25;;;8.55;;
48241;SDS011;34041;51.812;4.622;2024-02-21T10:01:34;11.63;;;9.40;;
48241;SDS011;34041;51.812;4.622;2024-02-21T10:04:35;13.45;;;9.43;;
48241;SDS011;34041;51.812;4.622;2024-02-21T10:07:35;13.27;;;9.32;;
48241;SDS011;34041;51.812;4.622;2024-02-21T10:10:45;14.98;;;12.48;;
48241;SDS011;34041;51.812;4.622;2024-02-21T10:13:45;16.95;;;11.00;;
48241;SDS011;34041;51.812;4.622;2024-02-21T10:16:47;12.85;;;11.60;;
48241;SDS011;34041;51.812;4.622;2024-02-21T10:19:47;13.45;;;11.30;;
48241;SDS011;34041;51.812;4.622;2024-02-21T10:22:48;12.17;;;10.43;;
48241;SDS011;34041;51.812;4.622;2024-02-21T10:25:48;11.77;;;10.52;;
48241;SDS011;34041;51.812;4.622;2024-02-21T10:28:51;14.60;;;10.43;;
48241;SDS011;34041;51.812;4.622;2024-02-21T10:31:52;14.82;;;12.18;;
48241;SDS011;34041;51.812;4.622;2024-02-21T10:35:00;15.00;;;11.80;;
48241;SDS011;34041;51.812;4.622;2024-02-21T10:38:00;14.65;;;11.25;;
48241;SDS011;34041;51.812;4.622;2024-02-21T10:41:00;13.85;;;11.88;;
48241;SDS011;34041;51.812;4.622;2024-02-21T10:44:04;12.25;;;10.70;;
48241;SDS011;34041;51.812;4.622;2024-02-21T10:47:09;21.08;;;12.07;;
48241;SDS011;34041;51.812;4.622;2024-02-21T10:50:09;14.90;;;13.35;;
48241;SDS011;34041;51.812;4.622;2024-02-21T10:53:23;14.70;;;12.93;;
48241;SDS011;34041;51.812;4.622;2024-02-21T10:56:26;15.55;;;12.15;;
48241;SDS011;34041;51.812;4.622;2024-02-21T10:59:28;16.45;;;12.73;;
48241;SDS011;34041;51.812;4.622;2024-02-21T11:02:30;16.92;;;12.40;;
48241;SDS011;34041;51.812;4.622;2024-02-21T11:05:31;13.77;;;11.90;;
48241;SDS011;34041;51.812;4.622;2024-02-21T11:08:32;12.27;;;10.88;;
48241;SDS011;34041;51.812;4.622;2024-02-21T11:11:37;12.30;;;10.15;;
48241;SDS011;34041;51.812;4.622;2024-02-21T11:17:39;10.50;;;8.90;;
48241;SDS011;34041;51.812;4.622;2024-02-21T11:20:39;11.02;;;8.88;;
48241;SDS011;34041;51.812;4.622;2024-02-21T11:23:40;13.60;;;8.82;;
48241;SDS011;34041;51.812;4.622;2024-02-21T11:26:40;14.83;;;8.60;;
48241;SDS011;34041;51.812;4.622;2024-02-21T11:29:44;12.02;;;8.80;;
48241;SDS011;34041;51.812;4.622;2024-02-21T11:32:44;13.45;;;7.95;;
48241;SDS011;34041;51.812;4.622;2024-02-21T11:35:46;11.60;;;7.03;;
48241;SDS011;34041;51.812;4.622;2024-02-21T11:38:46;8.90;;;6.82;;
48241;SDS011;34041;51.812;4.622;2024-02-21T11:41:47;10.03;;;7.03;;
48241;SDS011;34041;51.812;4.622;2024-02-21T11:44:47;12.55;;;5.88;;
48241;SDS011;34041;51.812;4.622;2024-02-21T11:47:48;9.93;;;7.30;;
48241;SDS011;34041;51.812;4.622;2024-02-21T11:50:52;8.15;;;6.93;;
48241;SDS011;34041;51.812;4.622;2024-02-21T11:53:52;11.18;;;6.10;;
48241;SDS011;34041;51.812;4.622;2024-02-21T11:56:53;13.35;;;6.90;;
48241;SDS011;34041;51.812;4.622;2024-02-21T11:59:53;8.00;;;6.45;;
48241;SDS011;34041;51.812;4.622;2024-02-21T12:02:54;14.32;;;6.07;;
48241;SDS011;34041;51.812;4.622;2024-02-21T12:09:00;8.18;;;6.60;;
48241;SDS011;34041;51.812;4.622;2024-02-21T12:12:01;10.52;;;6.15;;
48241;SDS011;34041;51.812;4.622;2024-02-21T12:15:03;9.32;;;5.55;;
48241;SDS011;34041;51.812;4.622;2024-02-21T12:18:04;10.70;;;6.22;;
48241;SDS011;34041;51.812;4.622;2024-02-21T12:21:04;12.17;;;5.70;;
48241;SDS011;34041;51.812;4.622;2024-02-21T12:24:14;9.93;;;6.22;;
48241;SDS011;34041;51.812;4.622;2024-02-21T12:27:15;10.88;;;6.07;;
48241;SDS011;34041;51.812;4.622;2024-02-21T12:30:15;9.80;;;6.10;;
48241;SDS011;34041;51.812;4.622;2024-02-21T12:33:16;8.48;;;6.28;;
48241;SDS011;34041;51.812;4.622;2024-02-21T12:36:16;10.75;;;5.90;;
48241;SDS011;34041;51.812;4.622;2024-02-21T12:39:16;14.83;;;6.07;;
48241;SDS011;34041;51.812;4.622;2024-02-21T12:42:16;9.38;;;4.80;;
48241;SDS011;34041;51.812;4.622;2024-02-21T12:45:17;9.43;;;5.53;;
48241;SDS011;34041;51.812;4.622;2024-02-21T12:48:17;9.55;;;6.28;;
48241;SDS011;34041;51.812;4.622;2024-02-21T12:51:17;10.45;;;5.72;;
48241;SDS011;34041;51.812;4.622;2024-02-21T12:54:20;11.88;;;5.15;;
48241;SDS011;34041;51.812;4.622;2024-02-21T12:57:21;7.53;;;5.28;;
48241;SDS011;34041;51.812;4.622;2024-02-21T13:00:23;10.30;;;4.68;;
48241;SDS011;34041;51.812;4.622;2024-02-21T13:03:26;12.50;;;6.20;;
48241;SDS011;34041;51.812;4.622;2024-02-21T13:06:26;5.90;;;4.53;;
48241;SDS011;34041;51.812;4.622;2024-02-21T13:09:27;8.10;;;4.75;;
48241;SDS011;34041;51.812;4.622;2024-02-21T13:12:28;8.20;;;6.13;;
48241;SDS011;34041;51.812;4.622;2024-02-21T13:15:29;7.25;;;4.47;;
48241;SDS011;34041;51.812;4.622;2024-02-21T13:18:29;7.22;;;5.05;;
48241;SDS011;34041;51.812;4.622;2024-02-21T13:21:30;10.20;;;4.65;;
48241;SDS011;34041;51.812;4.622;2024-02-21T13:24:30;9.03;;;5.13;;
48241;SDS011;34041;51.812;4.622;2024-02-21T13:27:31;7.57;;;4.53;;
48241;SDS011;34041;51.812;4.622;2024-02-21T13:30:31;8.13;;;4.37;;
48241;SDS011;34041;51.812;4.622;2024-02-21T13:33:31;8.17;;;5.03;;
48241;SDS011;34041;51.812;4.622;2024-02-21T13:36:31;8.52;;;4.00;;
48241;SDS011;34041;51.812;4.622;2024-02-21T13:39:32;8.33;;;3.90;;
48241;SDS011;34041;51.812;4.622;2024-02-21T13:42:35;10.43;;;4.80;;
48241;SDS011;34041;51.812;4.622;2024-02-21T13:45:35;6.60;;;4.13;;
48241;SDS011;34041;51.812;4.622;2024-02-21T13:48:35;5.35;;;4.20;;
48241;SDS011;34041;51.812;4.622;2024-02-21T13:51:35;9.00;;;4.47;;
48241;SDS011;34041;51.812;4.622;2024-02-21T13:54:36;6.97;;;3.97;;
48241;SDS011;34041;51.812;4.622;2024-02-21T13:57:36;5.13;;;4.03;;
48241;SDS011;34041;51.812;4.622;2024-02-21T14:00:36;10.55;;;3.65;;
48241;SDS011;34041;51.812;4.622;2024-02-21T14:03:37;7.75;;;4.75;;
48241;SDS011;34041;51.812;4.622;2024-02-21T14:06:37;8.10;;;4.57;;
48241;SDS011;34041;51.812;4.622;2024-02-21T14:09:43;9.02;;;5.28;;
48241;SDS011;34041;51.812;4.622;2024-02-21T14:12:43;10.18;;;5.38;;
48241;SDS011;34041;51.812;4.622;2024-02-21T14:15:43;7.47;;;4.60;;
48241;SDS011;34041;51.812;4.622;2024-02-21T14:18:45;8.93;;;4.82;;
48241;SDS011;34041;51.812;4.622;2024-02-21T14:21:46;7.97;;;5.87;;
48241;SDS011;34041;51.812;4.622;2024-02-21T14:24:46;7.03;;;4.53;;
48241;SDS011;34041;51.812;4.622;2024-02-21T14:27:46;11.00;;;5.63;;
48241;SDS011;34041;51.812;4.622;2024-02-21T14:30:46;9.30;;;6.10;;
48241;SDS011;34041;51.812;4.622;2024-02-21T14:33:48;7.38;;;5.78;;
48241;SDS011;34041;51.812;4.622;2024-02-21T14:36:48;8.77;;;6.37;;
48241;SDS011;34041;51.812;4.622;2024-02-21T14:39:48;8.40;;;5.90;;
48241;SDS011;34041;51.812;4.622;2024-02-21T14:42:48;8.70;;;5.37;;
48241;SDS011;34041;51.812;4.622;2024-02-21T14:45:49;6.87;;;4.97;;
48241;SDS011;34041;51.812;4.622;2024-02-21T14:48:49;8.20;;;5.25;;
48241;SDS011;34041;51.812;4.622;2024-02-21T14:51:49;13.30;;;5.77;;
48241;SDS011;34041;51.812;4.622;2024-02-21T14:54:50;11.20;;;4.97;;
48241;SDS011;34041;51.812;4.622;2024-02-21T14:57:51;8.82;;;5.40;;
48241;SDS011;34041;51.812;4.622;2024-02-21T15:00:51;9.30;;;5.17;;
48241;SDS011;34041;51.812;4.622;2024-02-21T15:03:52;7.07;;;4.63;;
48241;SDS011;34041;51.812;4.622;2024-02-21T15:06:52;9.77;;;4.28;;
48241;SDS011;34041;51.812;4.622;2024-02-21T15:09:52;7.60;;;4.20;;
48241;SDS011;34041;51.812;4.622;2024-02-21T15:12:52;9.17;;;4.80;;
48241;SDS011;34041;51.812;4.622;2024-02-21T15:15:53;11.13;;;5.75;;
48241;SDS011;34041;51.812;4.622;2024-02-21T15:18:54;8.27;;;5.20;;
48241;SDS011;34041;51.812;4.622;2024-02-21T15:21:54;11.02;;;5.85;;
48241;SDS011;34041;51.812;4.622;2024-02-21T15:24:54;12.27;;;5.13;;
48241;SDS011;34041;51.812;4.622;2024-02-21T15:27:55;6.93;;;5.18;;
48241;SDS011;34041;51.812;4.622;2024-02-21T15:30:55;14.57;;;7.73;;
48241;SDS011;34041;51.812;4.622;2024-02-21T15:33:56;8.50;;;5.70;;
48241;SDS011;34041;51.812;4.622;2024-02-21T15:36:57;8.73;;;5.63;;
48241;SDS011;34041;51.812;4.622;2024-02-21T15:39:57;12.83;;;5.43;;
48241;SDS011;34041;51.812;4.622;2024-02-21T15:42:57;9.20;;;6.20;;
48241;SDS011;34041;51.812;4.622;2024-02-21T15:45:57;15.13;;;8.33;;
48241;SDS011;34041;51.812;4.622;2024-02-21T15:48:57;11.20;;;7.30;;
48241;SDS011;34041;51.812;4.622;2024-02-21T15:51:58;11.43;;;7.28;;
48241;SDS011;34041;51.812;4.622;2024-02-21T15:54:58;10.13;;;7.07;;
48241;SDS011;34041;51.812;4.622;2024-02-21T15:57:58;12.55;;;6.57;;
48241;SDS011;34041;51.812;4.622;2024-02-21T16:00:59;10.98;;;6.78;;
48241;SDS011;34041;51.812;4.622;2024-02-21T16:03:59;9.10;;;6.60;;
48241;SDS011;34041;51.812;4.622;2024-02-21T16:06:59;11.23;;;6.78;;
48241;SDS011;34041;51.812;4.622;2024-02-21T16:10:00;12.57;;;8.00;;
48241;SDS011;34041;51.812;4.622;2024-02-21T16:13:01;10.68;;;6.38;;
48241;SDS011;34041;51.812;4.622;2024-02-21T16:16:01;10.00;;;7.75;;
48241;SDS011;34041;51.812;4.622;2024-02-21T16:19:03;10.63;;;7.15;;
48241;SDS011;34041;51.812;4.622;2024-02-21T16:22:05;16.70;;;7.15;;
48241;SDS011;34041;51.812;4.622;2024-02-21T16:25:05;10.35;;;6.90;;
48241;SDS011;34041;51.812;4.622;2024-02-21T16:28:06;9.05;;;6.10;;
48241;SDS011;34041;51.812;4.622;2024-02-21T16:31:10;10.50;;;6.20;;
48241;SDS011;34041;51.812;4.622;2024-02-21T16:34:11;10.57;;;6.05;;
48241;SDS011;34041;51.812;4.622;2024-02-21T16:37:11;9.23;;;7.15;;
48241;SDS011;34041;51.812;4.622;2024-02-21T16:40:13;10.07;;;6.43;;
48241;SDS011;34041;51.812;4.622;2024-02-21T16:43:13;9.02;;;7.32;;
48241;SDS011;34041;51.812;4.622;2024-02-21T16:46:13;8.17;;;5.80;;
48241;SDS011;34041;51.812;4.622;2024-02-21T16:49:14;8.88;;;7.60;;
48241;SDS011;34041;51.812;4.622;2024-02-21T16:52:14;10.03;;;5.83;;
48241;SDS011;34041;51.812;4.622;2024-02-21T16:55:15;11.23;;;6.50;;
48241;SDS011;34041;51.812;4.622;2024-02-21T16:58:16;8.45;;;7.20;;
48241;SDS011;34041;51.812;4.622;2024-02-21T17:01:17;10.82;;;7.40;;
48241;SDS011;34041;51.812;4.622;2024-02-21T17:04:17;9.55;;;6.82;;
48241;SDS011;34041;51.812;4.622;2024-02-21T17:07:19;7.78;;;6.68;;
48241;SDS011;34041;51.812;4.622;2024-02-21T17:10:20;7.75;;;6.47;;
48241;SDS011;34041;51.812;4.622;2024-02-21T17:13:20;9.00;;;6.45;;
48241;SDS011;34041;51.812;4.622;2024-02-21T17:16:21;10.02;;;6.80;;
48241;SDS011;34041;51.812;4.622;2024-02-21T17:19:21;7.85;;;6.80;;
48241;SDS011;34041;51.812;4.622;2024-02-21T17:22:22;10.33;;;6.80;;
48241;SDS011;34041;51.812;4.622;2024-02-21T17:25:22;9.07;;;5.80;;
48241;SDS011;34041;51.812;4.622;2024-02-21T17:28:22;8.88;;;6.55;;
48241;SDS011;34041;51.812;4.622;2024-02-21T17:31:23;11.07;;;7.45;;
48241;SDS011;34041;51.812;4.622;2024-02-21T17:34:24;8.10;;;6.47;;
48241;SDS011;34041;51.812;4.622;2024-02-21T17:37:24;9.30;;;6.27;;
48241;SDS011;34041;51.812;4.622;2024-02-21T17:40:24;8.70;;;7.17;;
48241;SDS011;34041;51.812;4.622;2024-02-21T17:43:25;8.50;;;6.88;;
48241;SDS011;34041;51.812;4.622;2024-02-21T17:46:26;9.23;;;6.72;;
48241;SDS011;34041;51.812;4.622;2024-02-21T17:49:26;8.52;;;7.22;;
48241;SDS011;34041;51.812;4.622;2024-02-21T17:52:26;7.28;;;6.22;;
48241;SDS011;34041;51.812;4.622;2024-02-21T17:55:27;8.70;;;6.68;;
48241;SDS011;34041;51.812;4.622;2024-02-21T17:58:27;9.60;;;7.22;;
48241;SDS011;34041;51.812;4.622;2024-02-21T18:01:27;9.13;;;6.57;;